ROMMA est une association bénévole à but non lucratif. Votre soutien est indispensable : ADHERER à ROMMA ou FAIRE un DON

Peyrus - (26, Drôme)

Vercors Ouest (430 m)   Longitude: 05°06'28"E   Latitude: 44°54'41"N Station partenaire n°83
 

Détail journalier du     <<     >>

Température Precipitation Humidité Pression Vent Dir Rafale Dir. rafale Second capteur de température situé à 410 m
Heure (°C) (mm) (%) (hPa) (km/h) (km/h) (°C)
01:00 8.807110144NNO26N8.9
02:00 8.207210147N24NNO8.3
03:00 7.607310144N19N7.8
04:00 6.407510144N19NNO6.7
05:00 5.907710143NNE13NNO6.1
06:00 5.207910142NE15N5.6
07:00 4.608010153N13ENE4.4
08:00 4.508110152N15ENE4.4
09:00 5.607810154N15NNE5.6
10:00 6.707610157N21NNO6.7
11:00 8.6071101611N27NNO8.3
12:00 10.6066101611N32N10.6
13:00 11.1061101510NE35NNO11.7
14:00 11.9059101511N35NNO12.2
15:00 13.0054101513N34N13.3
16:00 12.6055101511N40NNO13.3
17:00 13.2052101513N42N13.9
18:00 12.7053101515N39N13.3
19:00 12.2053101517N40N12.2
20:00 10.9050101511N39NNO11.1
21:00 10.204910167N31N10.6
22:00 10.0048101611N34NNE10.0
23:00 9.7051101610N34N9.4
minuit 9.205610176NNO26NNO8.9

Graphique du 12-04-2019

 

Serveur OMMA